createdAt,value
2018-03-11T00:30:50.665Z,15.73
2018-03-11T00:36:18.648Z,11.93
2018-03-11T00:46:56.648Z,12.13
2018-03-11T00:49:47.008Z,14.00
2018-03-11T00:52:41.718Z,12.83
2018-03-11T00:55:41.665Z,12.27
2018-03-11T00:58:30.553Z,13.87
2018-03-11T01:01:16.638Z,12.50
2018-03-11T01:03:56.614Z,13.60
2018-03-11T01:42:36.310Z,14.70
2018-03-11T01:45:26.834Z,16.30
2018-03-11T01:48:32.864Z,16.57
2018-03-11T01:51:16.264Z,15.83
2018-03-11T01:54:02.434Z,15.93
2018-03-11T01:56:42.530Z,12.90
2018-03-11T01:59:39.458Z,13.77
2018-03-11T02:02:22.518Z,16.58
2018-03-11T02:15:28.113Z,14.73
2018-03-11T02:18:14.214Z,16.35
2018-03-11T02:21:06.563Z,13.17
2018-03-11T02:23:44.152Z,14.30
2018-03-11T02:27:53.374Z,14.83
2018-03-11T02:30:36.016Z,15.40
2018-03-11T02:33:38.808Z,18.37
2018-03-11T02:36:34.042Z,15.87
2018-03-11T02:39:21.734Z,17.77
2018-03-11T02:45:04.042Z,16.83
2018-03-11T02:47:44.418Z,15.60
2018-03-11T02:50:28.023Z,17.13
2018-03-11T02:53:14.895Z,14.77
2018-03-11T02:56:06.962Z,17.93
2018-03-11T02:58:47.076Z,15.90
2018-03-11T03:04:40.350Z,16.13
2018-03-11T03:07:30.242Z,16.50
2018-03-11T03:10:14.664Z,15.77
2018-03-11T03:15:51.023Z,17.90
2018-03-11T03:18:37.049Z,17.47
2018-03-11T03:21:24.238Z,17.47
2018-03-11T03:24:19.404Z,18.23
2018-03-11T03:27:08.233Z,18.93
2018-03-11T03:32:37.255Z,15.27
2018-03-11T03:35:25.407Z,17.92
2018-03-11T03:38:16.700Z,16.50
2018-03-11T03:41:11.314Z,21.10
2018-03-11T03:43:52.403Z,15.03
2018-03-11T03:49:29.372Z,17.37
2018-03-11T03:52:30.856Z,16.83
2018-03-11T03:55:17.943Z,16.00
2018-03-11T03:57:58.954Z,16.73
2018-03-11T04:00:44.914Z,17.60
2018-03-11T04:03:35.935Z,32.23
2018-03-11T04:06:16.946Z,21.03
2018-03-11T04:09:04.577Z,19.83
2018-03-11T04:11:47.270Z,18.83
2018-03-11T04:23:15.548Z,20.80
2018-03-11T04:36:38.724Z,19.87
2018-03-11T04:39:33.150Z,25.03
2018-03-11T10:26:17.729Z,5.85
2018-03-11T10:29:24.281Z,4.93
2018-03-11T10:32:13.232Z,7.10
2018-03-11T10:35:28.051Z,5.87
2018-03-11T10:38:43.025Z,4.67
2018-03-11T10:41:41.047Z,5.70
2018-03-11T10:44:27.702Z,9.93
2018-03-11T10:47:19.028Z,6.10
2018-03-11T10:52:59.133Z,5.30
2018-03-11T10:55:43.515Z,6.90
2018-03-11T10:58:38.826Z,7.40
2018-03-11T11:01:24.832Z,4.40
2018-03-11T11:10:37.681Z,4.82
2018-03-11T11:13:20.787Z,3.83
2018-03-11T11:16:11.978Z,5.13
2018-03-11T11:21:56.322Z,7.07
2018-03-11T11:24:51.155Z,4.53
2018-03-11T11:35:24.480Z,4.50
2018-03-11T11:38:22.525Z,4.70
2018-03-11T11:41:22.018Z,5.57
2018-03-11T11:44:10.763Z,5.20
2018-03-11T11:50:25.381Z,5.20
2018-03-11T11:55:58.509Z,4.15
2018-03-11T11:58:53.297Z,5.47
2018-03-11T12:01:37.985Z,3.93
2018-03-11T12:04:26.948Z,3.63
2018-03-11T12:07:07.708Z,4.10
2018-03-11T12:09:53.820Z,5.37
2018-03-11T12:12:38.176Z,4.50
2018-03-11T12:18:04.511Z,5.10
2018-03-11T12:20:45.906Z,3.37
2018-03-11T12:23:41.936Z,6.67
2018-03-11T12:26:26.857Z,3.90
2018-03-11T12:47:37.200Z,5.27
2018-03-11T12:56:43.094Z,4.10
2018-03-11T12:59:44.972Z,10.13
2018-03-11T13:03:01.645Z,3.67
2018-03-11T13:05:45.289Z,8.43
2018-03-11T13:08:26.277Z,8.07
2018-03-11T13:11:15.978Z,5.50
2018-03-11T13:14:03.007Z,5.80
2018-03-11T13:17:06.831Z,11.43
2018-03-11T13:20:02.414Z,3.80
2018-03-11T13:25:46.893Z,7.50
2018-03-11T13:28:48.772Z,8.13
2018-03-11T13:31:38.246Z,6.57
2018-03-11T14:20:36.788Z,2.43
2018-03-11T14:23:22.374Z,2.83
2018-03-11T14:33:39.054Z,4.50
2018-03-11T14:48:09.703Z,3.83
2018-03-11T14:50:54.211Z,2.43
2018-03-11T14:53:50.025Z,2.23
2018-03-11T14:56:39.894Z,2.67
2018-03-11T14:59:42.056Z,1.70
2018-03-11T15:02:24.513Z,1.77
2018-03-11T15:08:02.613Z,2.80
2018-03-11T15:10:53.423Z,2.30
2018-03-11T15:16:31.518Z,1.67
2018-03-11T15:25:11.457Z,3.50
2018-03-11T15:27:54.979Z,3.17
2018-03-11T15:36:32.522Z,3.37
2018-03-11T15:39:46.862Z,1.63
2018-03-11T15:46:41.756Z,2.40
2018-03-11T15:49:34.000Z,2.03
2018-03-11T15:52:39.052Z,2.93
2018-03-11T15:55:38.651Z,3.33
